Time;durP1;ratioP1;P1;durP2;ratioP2;P2;SDS_P1;SDS_P2;PMS_P1;PMS_P2;Temp;Humidity;BMP_temperature;BMP_pressure;BME280_temperature;BME280_humidity;BME280_pressure;Samples;Min_cycle;Max_cycle;Signal;HPM_P1;HPM_P2
2023/10/01 00:01:33;;;;;;;15.87;9.73;;;;;;;;;;4974268;28;20470;-68
2023/10/01 00:04:00;;;;;;;17.30;9.57;;;;;;;;;;4973709;28;20575;-68
2023/10/01 00:06:26;;;;;;;20.33;9.70;;;;;;;;;;4974147;28;20897;-68
2023/10/01 00:08:53;;;;;;;18.03;9.07;;;;;;;;;;4974295;28;20513;-68
2023/10/01 00:11:19;;;;;;;15.60;8.80;;;;;;;;;;4974296;28;20446;-68
2023/10/01 00:13:48;;;;;;;22.80;9.83;;;;;;;;;;4973829;28;20439;-68
2023/10/01 00:16:14;;;;;;;13.63;8.10;;;;;;;;;;4974318;28;20779;-68
2023/10/01 00:18:40;;;;;;;14.80;8.23;;;;;;;;;;4974006;28;20439;-68
2023/10/01 00:21:06;;;;;;;14.30;9.43;;;;;;;;;;4974102;28;20496;-68
2023/10/01 00:23:35;;;;;;;11.97;8.83;;;;;;;;;;4974055;28;20469;-68
2023/10/01 00:26:01;;;;;;;14.90;8.20;;;;;;;;;;4973999;28;20816;-61
2023/10/01 00:28:27;;;;;;;16.33;9.30;;;;;;;;;;4973408;28;20427;-61
2023/10/01 00:30:53;;;;;;;14.07;8.63;;;;;;;;;;4973487;28;20438;-61
2023/10/01 00:33:19;;;;;;;15.40;9.00;;;;;;;;;;4973645;28;20506;-61
2023/10/01 00:35:46;;;;;;;14.53;8.13;;;;;;;;;;4973370;28;20961;-61
2023/10/01 00:38:16;;;;;;;15.83;9.40;;;;;;;;;;4973417;28;20438;-61
2023/10/01 00:40:45;;;;;;;14.93;9.43;;;;;;;;;;4973540;28;20419;-60
2023/10/01 00:43:12;;;;;;;12.50;8.70;;;;;;;;;;4973004;28;20488;-61
2023/10/01 00:45:39;;;;;;;15.90;8.50;;;;;;;;;;4973389;28;20415;-61
2023/10/01 00:48:09;;;;;;;15.17;9.30;;;;;;;;;;4972985;28;20434;-62
2023/10/01 00:50:36;;;;;;;13.90;8.00;;;;;;;;;;4973571;28;20772;-63
2023/10/01 00:53:07;;;;;;;14.00;8.57;;;;;;;;;;4972897;28;20469;-62
2023/10/01 00:55:33;;;;;;;22.60;9.87;;;;;;;;;;4973535;28;20438;-63
2023/10/01 00:57:59;;;;;;;15.27;8.80;;;;;;;;;;4971524;28;20415;-63
2023/10/01 01:00:25;;;;;;;14.57;8.87;;;;;;;;;;4972229;28;20447;-62
2023/10/01 01:03:05;;;;;;;14.50;8.60;;;;;;;;;;4972004;28;20417;-63
2023/10/01 01:05:35;;;;;;;13.87;8.67;;;;;;;;;;4972939;28;20756;-62
2023/10/01 01:08:07;;;;;;;16.00;9.13;;;;;;;;;;4972795;28;20421;-62
2023/10/01 01:10:39;;;;;;;15.07;8.53;;;;;;;;;;4972420;28;20423;-62
2023/10/01 01:13:06;;;;;;;15.43;8.80;;;;;;;;;;4972867;28;20913;-63
2023/10/01 01:15:34;;;;;;;14.93;8.30;;;;;;;;;;4972556;28;20425;-60
2023/10/01 01:18:00;;;;;;;13.50;8.13;;;;;;;;;;4972305;28;20419;-61
2023/10/01 01:20:30;;;;;;;15.60;9.30;;;;;;;;;;4972449;28;20446;-61
2023/10/01 01:23:01;;;;;;;15.30;8.50;;;;;;;;;;4972497;28;20505;-62
2023/10/01 01:25:28;;;;;;;15.43;9.00;;;;;;;;;;4973181;28;20418;-61
2023/10/01 01:27:57;;;;;;;12.90;8.70;;;;;;;;;;4978773;28;20840;-62
2023/10/01 01:30:26;;;;;;;14.20;8.70;;;;;;;;;;4979204;28;20939;-61
2023/10/01 01:32:53;;;;;;;12.93;7.50;;;;;;;;;;4979318;28;20780;-61
2023/10/01 01:35:27;;;;;;;12.17;8.00;;;;;;;;;;4979520;28;20414;-61
2023/10/01 01:37:55;;;;;;;16.13;8.10;;;;;;;;;;4978186;28;20959;-61
2023/10/01 01:40:25;;;;;;;13.33;8.50;;;;;;;;;;4978831;28;20414;-62
2023/10/01 01:42:55;;;;;;;13.50;8.07;;;;;;;;;;4979063;28;20410;-63
2023/10/01 01:45:25;;;;;;;11.70;8.33;;;;;;;;;;4979368;28;20428;-61
2023/10/01 01:47:52;;;;;;;12.07;7.07;;;;;;;;;;4979092;28;20624;-61
2023/10/01 01:50:26;;;;;;;10.37;7.63;;;;;;;;;;4977826;28;20429;-61
2023/10/01 01:52:53;;;;;;;12.00;7.73;;;;;;;;;;4979244;28;20436;-61
2023/10/01 01:55:23;;;;;;;12.67;8.03;;;;;;;;;;4977526;28;21123;-61
2023/10/01 01:58:10;;;;;;;10.90;7.63;;;;;;;;;;4979220;28;20418;-61
2023/10/01 02:00:38;;;;;;;14.77;7.43;;;;;;;;;;4978794;28;20418;-61
2023/10/01 02:03:10;;;;;;;13.27;7.27;;;;;;;;;;4979146;28;20548;-61
2023/10/01 02:05:47;;;;;;;11.93;7.90;;;;;;;;;;4979125;28;20418;-62
2023/10/01 02:08:34;;;;;;;12.17;7.10;;;;;;;;;;4979433;28;20887;-61
2023/10/01 02:11:04;;;;;;;13.83;6.50;;;;;;;;;;4978750;28;20413;-63
2023/10/01 02:13:30;;;;;;;9.80;7.57;;;;;;;;;;4979350;28;20437;-62
2023/10/01 02:16:18;;;;;;;10.07;7.27;;;;;;;;;;4978870;28;20458;-62
2023/10/01 02:18:42;;;;;;;10.53;7.70;;;;;;;;;;4978750;28;20454;-63
2023/10/01 02:21:16;;;;;;;12.57;7.50;;;;;;;;;;4978757;28;20477;-62
2023/10/01 02:23:42;;;;;;;8.23;6.23;;;;;;;;;;4978948;28;20528;-62
2023/10/01 02:26:08;;;;;;;10.77;6.73;;;;;;;;;;4977992;28;20481;-61
2023/10/01 02:28:36;;;;;;;8.63;6.90;;;;;;;;;;4978157;28;20411;-62
2023/10/01 02:31:04;;;;;;;11.30;7.17;;;;;;;;;;4978487;28;20484;-62
2023/10/01 02:33:55;;;;;;;9.90;6.60;;;;;;;;;;4977279;28;20507;-62
2023/10/01 02:36:22;;;;;;;8.73;6.50;;;;;;;;;;4978384;28;20454;-62
2023/10/01 02:38:53;;;;;;;8.17;5.87;;;;;;;;;;4974973;28;20517;-63
2023/10/01 02:41:25;;;;;;;12.60;6.57;;;;;;;;;;4975947;28;20415;-62
2023/10/01 02:43:51;;;;;;;9.20;6.00;;;;;;;;;;4975734;28;20497;-61
2023/10/01 02:46:26;;;;;;;10.40;7.27;;;;;;;;;;4975267;28;20547;-62
2023/10/01 02:48:52;;;;;;;10.83;6.70;;;;;;;;;;4974347;28;20929;-63
2023/10/01 02:51:32;;;;;;;7.10;6.40;;;;;;;;;;4975566;28;20465;-62
2023/10/01 02:54:18;;;;;;;7.70;6.00;;;;;;;;;;4975583;28;20414;-62
2023/10/01 02:57:11;;;;;;;7.67;6.20;;;;;;;;;;4975677;28;20526;-62
2023/10/01 02:59:38;;;;;;;8.40;6.60;;;;;;;;;;4975493;28;20435;-61
2023/10/01 03:02:08;;;;;;;6.80;6.10;;;;;;;;;;4974561;28;20422;-62
2023/10/01 03:04:36;;;;;;;7.90;6.33;;;;;;;;;;4974633;28;20481;-61
2023/10/01 03:07:04;;;;;;;11.17;6.57;;;;;;;;;;4974319;28;20505;-61
2023/10/01 03:09:34;;;;;;;9.03;6.87;;;;;;;;;;4974524;28;20530;-61
2023/10/01 03:15:00;;;;;;;17.60;6.60;;;;;;;;;;4975411;28;20853;-61
2023/10/01 03:17:38;;;;;;;9.47;6.27;;;;;;;;;;4975168;28;20416;-61
2023/10/01 03:22:52;;;;;;;11.83;6.40;;;;;;;;;;4974686;28;20449;-63
2023/10/01 03:25:18;;;;;;;13.27;6.60;;;;;;;;;;4974931;28;20983;-61
2023/10/01 03:27:45;;;;;;;20.43;6.37;;;;;;;;;;4974673;28;20497;-61
2023/10/01 03:30:21;;;;;;;12.00;7.40;;;;;;;;;;4975246;28;20485;-61
2023/10/01 03:32:47;;;;;;;9.20;6.70;;;;;;;;;;4974352;28;20996;-61
2023/10/01 03:35:13;;;;;;;7.97;6.20;;;;;;;;;;4974196;28;20505;-62
2023/10/01 03:37:40;;;;;;;11.20;6.60;;;;;;;;;;4974211;28;20410;-64
2023/10/01 03:40:21;;;;;;;11.20;7.20;;;;;;;;;;4974632;28;20447;-61
2023/10/01 03:42:53;;;;;;;8.57;6.30;;;;;;;;;;4974722;28;20473;-61
2023/10/01 03:45:37;;;;;;;13.83;7.37;;;;;;;;;;4974282;28;20485;-63
2023/10/01 03:48:06;;;;;;;11.80;6.83;;;;;;;;;;4974127;28;20783;-61
2023/10/01 03:50:32;;;;;;;11.43;7.20;;;;;;;;;;4973253;28;20415;-61
2023/10/01 03:52:59;;;;;;;15.23;8.03;;;;;;;;;;4973940;28;20981;-61
2023/10/01 03:58:05;;;;;;;11.03;7.77;;;;;;;;;;4974214;28;20907;-61
2023/10/01 04:00:41;;;;;;;13.87;7.77;;;;;;;;;;4974338;28;20716;-62
2023/10/01 04:03:07;;;;;;;8.60;6.53;;;;;;;;;;4973244;28;20492;-61
2023/10/01 04:05:34;;;;;;;12.00;6.73;;;;;;;;;;4973348;28;20419;-61
2023/10/01 04:08:11;;;;;;;11.47;7.30;;;;;;;;;;4973545;28;20438;-62
2023/10/01 04:10:41;;;;;;;10.53;6.70;;;;;;;;;;4974101;28;20802;-62
2023/10/01 04:13:20;;;;;;;14.90;7.07;;;;;;;;;;4973998;28;20933;-61
2023/10/01 04:15:49;;;;;;;10.37;6.77;;;;;;;;;;4973924;28;20415;-61
2023/10/01 04:21:18;;;;;;;10.20;6.80;;;;;;;;;;4974184;28;20403;-62
2023/10/01 04:23:41;;;;;;;11.33;7.50;;;;;;;;;;4973632;28;20829;-61
2023/10/01 04:26:16;;;;;;;11.37;7.90;;;;;;;;;;4974367;28;20414;-61
2023/10/01 04:28:46;;;;;;;13.77;6.50;;;;;;;;;;4974157;28;20846;-61
2023/10/01 04:31:15;;;;;;;12.53;7.73;;;;;;;;;;4973791;28;20446;-62
2023/10/01 04:33:42;;;;;;;12.87;6.93;;;;;;;;;;4973111;28;20415;-61
2023/10/01 04:36:11;;;;;;;10.43;7.83;;;;;;;;;;4973248;28;20423;-61
2023/10/01 04:38:37;;;;;;;14.40;7.13;;;;;;;;;;4973903;28;20457;-61
2023/10/01 04:41:03;;;;;;;11.60;7.30;;;;;;;;;;4973346;28;20443;-61
2023/10/01 04:43:34;;;;;;;12.30;7.50;;;;;;;;;;4973661;28;20466;-61
2023/10/01 04:46:08;;;;;;;12.10;7.23;;;;;;;;;;4973716;28;20438;-61
2023/10/01 04:48:39;;;;;;;13.23;7.73;;;;;;;;;;4973574;28;20569;-61
2023/10/01 04:51:07;;;;;;;10.73;7.20;;;;;;;;;;4974239;28;20800;-61
2023/10/01 04:53:39;;;;;;;10.00;7.00;;;;;;;;;;4973360;28;20422;-61
2023/10/01 04:56:10;;;;;;;9.20;6.70;;;;;;;;;;4973752;28;20415;-61
2023/10/01 04:58:37;;;;;;;12.07;7.90;;;;;;;;;;4973545;28;20430;-61
2023/10/01 05:01:05;;;;;;;11.90;7.90;;;;;;;;;;4972318;28;20424;-62
2023/10/01 05:03:40;;;;;;;14.63;7.73;;;;;;;;;;4971988;28;20469;-61
2023/10/01 05:06:13;;;;;;;11.67;8.00;;;;;;;;;;4972102;28;20432;-61
2023/10/01 05:08:40;;;;;;;12.40;7.80;;;;;;;;;;4972264;28;20425;-63
2023/10/01 05:11:10;;;;;;;10.33;6.97;;;;;;;;;;4972707;28;20418;-62
2023/10/01 05:13:39;;;;;;;14.70;7.20;;;;;;;;;;4972395;28;20474;-62
2023/10/01 05:16:06;;;;;;;14.67;7.80;;;;;;;;;;4971887;28;20418;-61
2023/10/01 05:18:35;;;;;;;17.67;7.90;;;;;;;;;;4971082;28;20868;-61
2023/10/01 05:21:11;;;;;;;11.40;7.10;;;;;;;;;;4972242;28;20426;-61
2023/10/01 05:23:39;;;;;;;10.67;7.53;;;;;;;;;;4971537;28;20469;-62
2023/10/01 05:26:08;;;;;;;12.33;7.67;;;;;;;;;;4972417;28;20407;-61
2023/10/01 05:28:36;;;;;;;20.03;8.03;;;;;;;;;;4971900;28;21244;-62
2023/10/01 05:31:06;;;;;;;10.77;6.93;;;;;;;;;;4972336;28;20452;-61
2023/10/01 05:33:34;;;;;;;14.57;7.30;;;;;;;;;;4972684;28;20524;-62
2023/10/01 05:36:04;;;;;;;11.03;6.23;;;;;;;;;;4972821;28;20440;-61
2023/10/01 05:38:33;;;;;;;16.73;6.47;;;;;;;;;;4989559;28;20549;-61
2023/10/01 05:41:09;;;;;;;15.50;7.13;;;;;;;;;;4991693;28;20417;-61
2023/10/01 05:43:37;;;;;;;13.80;8.23;;;;;;;;;;4990712;28;20471;-61
2023/10/01 05:46:08;;;;;;;11.30;6.83;;;;;;;;;;4992347;28;20493;-61
2023/10/01 05:48:35;;;;;;;11.67;6.40;;;;;;;;;;4991943;28;20500;-61
2023/10/01 05:51:02;;;;;;;11.57;7.37;;;;;;;;;;4991870;28;20465;-61
2023/10/01 05:53:30;;;;;;;15.90;6.40;;;;;;;;;;4992082;28;20752;-61
2023/10/01 05:56:03;;;;;;;23.83;17.37;;;;;;;;;;4991550;28;20441;-60
2023/10/01 05:58:30;;;;;;;18.03;12.97;;;;;;;;;;4991103;28;20783;-61
2023/10/01 06:01:05;;;;;;;9.20;7.00;;;;;;;;;;4983521;28;20438;-60
2023/10/01 06:03:32;;;;;;;13.30;7.33;;;;;;;;;;4969756;28;20509;-61
2023/10/01 06:05:58;;;;;;;11.10;6.97;;;;;;;;;;4972213;28;20415;-61
2023/10/01 06:08:32;;;;;;;13.07;6.80;;;;;;;;;;4971167;28;20538;-62
2023/10/01 06:11:05;;;;;;;14.07;7.17;;;;;;;;;;4971895;28;20437;-62
2023/10/01 06:13:38;;;;;;;10.70;6.60;;;;;;;;;;4974749;28;20450;-62
2023/10/01 06:16:15;;;;;;;10.17;7.10;;;;;;;;;;4980062;28;20442;-61
2023/10/01 06:18:41;;;;;;;9.17;6.80;;;;;;;;;;4972898;28;20496;-62
2023/10/01 06:21:11;;;;;;;12.70;7.27;;;;;;;;;;4978462;28;20792;-62
2023/10/01 06:23:49;;;;;;;10.90;7.10;;;;;;;;;;4974881;28;20473;-61
2023/10/01 06:26:19;;;;;;;13.13;8.37;;;;;;;;;;4975691;28;20508;-61
2023/10/01 06:28:46;;;;;;;9.80;7.53;;;;;;;;;;4973946;28;20929;-61
2023/10/01 06:31:16;;;;;;;11.23;7.67;;;;;;;;;;4975491;28;20452;-62
2023/10/01 06:33:45;;;;;;;12.83;7.37;;;;;;;;;;4975392;28;20468;-61
2023/10/01 06:36:21;;;;;;;11.57;7.50;;;;;;;;;;4975667;28;20418;-61
2023/10/01 06:38:48;;;;;;;17.77;7.70;;;;;;;;;;4975602;28;20426;-61
2023/10/01 06:41:19;;;;;;;12.77;7.83;;;;;;;;;;4975744;28;20527;-60
2023/10/01 06:43:48;;;;;;;13.00;8.00;;;;;;;;;;4975533;28;20477;-61
2023/10/01 06:46:35;;;;;;;12.37;8.20;;;;;;;;;;4975026;28;20949;-61
2023/10/01 06:49:03;;;;;;;11.13;8.00;;;;;;;;;;4974290;28;21128;-61
2023/10/01 06:51:37;;;;;;;11.20;7.73;;;;;;;;;;4975024;28;20802;-61
2023/10/01 06:54:06;;;;;;;11.33;7.40;;;;;;;;;;4975060;28;20449;-60
2023/10/01 06:56:35;;;;;;;13.80;8.40;;;;;;;;;;4975192;28;20431;-60
2023/10/01 07:01:42;;;;;;;15.77;9.60;;;;;;;;;;4975601;28;20455;-60
2023/10/01 07:04:11;;;;;;;12.93;8.47;;;;;;;;;;4975524;28;20981;-60
2023/10/01 07:06:37;;;;;;;17.40;9.37;;;;;;;;;;4974753;28;20803;-61
2023/10/01 07:09:06;;;;;;;16.03;9.57;;;;;;;;;;4969690;28;20504;-61
2023/10/01 07:11:33;;;;;;;17.20;9.77;;;;;;;;;;4955664;28;20469;-60
2023/10/01 07:14:03;;;;;;;14.00;8.40;;;;;;;;;;4956429;28;20518;-60
2023/10/01 07:16:35;;;;;;;18.77;9.80;;;;;;;;;;4955674;28;20471;-60
2023/10/01 07:19:04;;;;;;;14.80;9.07;;;;;;;;;;4955439;29;20894;-60
2023/10/01 07:21:30;;;;;;;12.20;8.23;;;;;;;;;;4954977;28;20949;-60
2023/10/01 07:23:58;;;;;;;16.33;8.77;;;;;;;;;;4955367;28;20479;-61
2023/10/01 07:26:25;;;;;;;18.40;10.10;;;;;;;;;;4955681;29;20500;-60
2023/10/01 07:28:59;;;;;;;17.80;9.70;;;;;;;;;;4955651;29;20475;-60
2023/10/01 07:31:25;;;;;;;19.20;9.57;;;;;;;;;;4955751;28;20437;-60
2023/10/01 07:33:54;;;;;;;19.63;9.07;;;;;;;;;;4955185;29;20413;-60
2023/10/01 07:36:23;;;;;;;14.47;9.00;;;;;;;;;;4955215;29;20417;-60
2023/10/01 07:38:52;;;;;;;18.27;10.50;;;;;;;;;;4955411;28;20418;-60
2023/10/01 07:41:20;;;;;;;17.90;10.40;;;;;;;;;;4955525;29;20427;-61
2023/10/01 07:43:46;;;;;;;19.60;10.47;;;;;;;;;;4953976;29;20512;-60
2023/10/01 07:46:14;;;;;;;16.93;10.33;;;;;;;;;;4954725;29;20430;-61
2023/10/01 07:48:47;;;;;;;17.63;10.53;;;;;;;;;;4955079;29;20890;-61
2023/10/01 07:51:35;;;;;;;16.70;10.27;;;;;;;;;;4954145;29;20790;-61
2023/10/01 07:54:03;;;;;;;16.23;10.00;;;;;;;;;;4955159;29;20434;-61
2023/10/01 07:56:32;;;;;;;17.37;10.43;;;;;;;;;;4954845;29;20418;-60
2023/10/01 07:59:17;;;;;;;14.67;8.90;;;;;;;;;;4954763;29;20416;-62
2023/10/01 08:01:59;;;;;;;16.10;9.60;;;;;;;;;;4955217;28;20422;-61
2023/10/01 08:07:15;;;;;;;23.67;15.73;;;;;;;;;;4955568;29;20968;-61
2023/10/01 08:09:46;;;;;;;32.30;20.17;;;;;;;;;;4954916;29;20481;-62
2023/10/01 08:12:12;;;;;;;18.03;10.07;;;;;;;;;;4955171;29;20505;-62
2023/10/01 08:14:40;;;;;;;16.03;8.03;;;;;;;;;;4953453;28;20435;-61
2023/10/01 08:17:07;;;;;;;16.57;8.73;;;;;;;;;;4954631;28;20413;-61
2023/10/01 08:19:45;;;;;;;18.17;10.07;;;;;;;;;;4954887;28;20415;-61
2023/10/01 08:22:15;;;;;;;14.40;9.30;;;;;;;;;;4954937;29;20430;-61
2023/10/01 08:24:49;;;;;;;13.00;8.80;;;;;;;;;;4954136;28;20482;-61
2023/10/01 08:27:31;;;;;;;13.27;8.60;;;;;;;;;;4954757;28;20433;-61
2023/10/01 08:32:49;;;;;;;16.10;9.40;;;;;;;;;;4955327;29;20767;-67
2023/10/01 08:35:22;;;;;;;17.33;9.97;;;;;;;;;;4954308;28;20970;-67
2023/10/01 08:37:59;;;;;;;18.03;9.40;;;;;;;;;;4953330;28;20422;-68
2023/10/01 08:40:27;;;;;;;15.70;8.30;;;;;;;;;;4954807;28;20444;-67
2023/10/01 08:42:58;;;;;;;18.40;9.83;;;;;;;;;;4954973;28;20497;-67
2023/10/01 08:45:34;;;;;;;19.37;10.40;;;;;;;;;;4954704;29;20543;-67
2023/10/01 08:48:01;;;;;;;12.50;8.43;;;;;;;;;;4954618;29;20496;-67
2023/10/01 08:50:36;;;;;;;13.53;9.00;;;;;;;;;;4954664;28;20869;-67
2023/10/01 08:53:09;;;;;;;17.70;9.77;;;;;;;;;;4954451;28;20453;-67
2023/10/01 08:55:39;;;;;;;20.10;10.00;;;;;;;;;;4954752;28;20430;-67
2023/10/01 08:58:15;;;;;;;16.43;9.33;;;;;;;;;;4954393;29;20494;-67
2023/10/01 09:01:10;;;;;;;14.43;8.90;;;;;;;;;;4954303;28;20481;-68
2023/10/01 09:03:36;;;;;;;39.10;30.07;;;;;;;;;;4954758;28;20473;-68
2023/10/01 09:06:03;;;;;;;19.47;12.40;;;;;;;;;;4955024;29;20862;-67
2023/10/01 09:08:32;;;;;;;14.50;9.53;;;;;;;;;;4955019;29;20439;-69
2023/10/01 09:11:10;;;;;;;17.00;9.37;;;;;;;;;;4954408;28;20422;-68
2023/10/01 09:13:45;;;;;;;19.33;9.90;;;;;;;;;;4953943;28;20931;-67
2023/10/01 09:16:16;;;;;;;16.53;10.00;;;;;;;;;;4954259;28;20435;-67
2023/10/01 09:19:05;;;;;;;12.67;8.57;;;;;;;;;;4954542;29;20414;-67
2023/10/01 09:21:40;;;;;;;13.73;9.03;;;;;;;;;;4954227;28;20501;-67
2023/10/01 09:24:31;;;;;;;11.27;8.27;;;;;;;;;;4952696;28;20992;-67
2023/10/01 09:27:08;;;;;;;15.77;8.53;;;;;;;;;;4954060;28;20455;-67
2023/10/01 09:29:43;;;;;;;13.67;8.53;;;;;;;;;;4954152;28;20433;-67
2023/10/01 09:32:11;;;;;;;12.90;8.13;;;;;;;;;;4954042;28;20477;-67
2023/10/01 09:34:46;;;;;;;16.53;8.83;;;;;;;;;;4953969;28;20450;-67
2023/10/01 09:37:33;;;;;;;16.07;8.27;;;;;;;;;;4953840;28;20964;-66
2023/10/01 09:40:32;;;;;;;17.60;9.87;;;;;;;;;;4953728;28;20510;-67
2023/10/01 09:42:56;;;;;;;18.07;8.90;;;;;;;;;;4953841;28;20827;-68
2023/10/01 09:45:27;;;;;;;13.53;8.60;;;;;;;;;;4954299;28;20461;-67
2023/10/01 09:48:29;;;;;;;12.40;8.63;;;;;;;;;;4957171;28;20413;-68
2023/10/01 09:50:58;;;;;;;13.10;8.43;;;;;;;;;;4957817;28;20811;-67
2023/10/01 09:53:31;;;;;;;13.93;8.60;;;;;;;;;;4957682;28;20502;-67
2023/10/01 09:55:59;;;;;;;13.63;8.70;;;;;;;;;;4957998;28;20521;-67
2023/10/01 09:58:25;;;;;;;21.03;9.57;;;;;;;;;;4956369;28;20452;-67
2023/10/01 10:00:55;;;;;;;13.07;8.87;;;;;;;;;;4957763;28;20866;-67
2023/10/01 10:03:21;;;;;;;13.77;8.63;;;;;;;;;;4957466;28;20932;-67
2023/10/01 10:05:48;;;;;;;12.70;8.53;;;;;;;;;;4955975;28;20435;-67
2023/10/01 10:08:20;;;;;;;15.20;10.80;;;;;;;;;;4957377;28;20418;-67
2023/10/01 10:10:50;;;;;;;12.10;9.37;;;;;;;;;;4957296;29;20463;-67
2023/10/01 10:13:38;;;;;;;17.63;9.63;;;;;;;;;;4957225;28;20450;-67
2023/10/01 10:19:05;;;;;;;15.13;8.73;;;;;;;;;;4957428;29;20467;-67
2023/10/01 10:22:04;;;;;;;14.43;9.30;;;;;;;;;;4957095;28;20454;-67
2023/10/01 10:24:30;;;;;;;12.00;8.60;;;;;;;;;;4957086;28;20482;-68
2023/10/01 10:27:33;;;;;;;10.97;8.70;;;;;;;;;;4956750;28;20407;-68
2023/10/01 10:29:57;;;;;;;11.17;8.53;;;;;;;;;;4954821;29;20443;-67
2023/10/01 10:32:51;;;;;;;15.57;9.77;;;;;;;;;;4956902;28;20938;-68
2023/10/01 10:35:17;;;;;;;14.17;8.67;;;;;;;;;;4942164;29;20517;-68
2023/10/01 10:38:19;;;;;;;14.90;8.97;;;;;;;;;;4955559;28;20567;-68
2023/10/01 10:41:05;;;;;;;12.23;9.77;;;;;;;;;;4954890;29;20202;-67
2023/10/01 10:43:33;;;;;;;15.87;7.80;;;;;;;;;;4956839;28;20982;-67
2023/10/01 10:46:00;;;;;;;23.53;9.13;;;;;;;;;;4956658;28;20439;-67
2023/10/01 10:48:46;;;;;;;16.00;11.27;;;;;;;;;;4956366;28;20424;-68
2023/10/01 10:51:18;;;;;;;10.93;9.03;;;;;;;;;;4956565;28;20506;-68
2023/10/01 10:53:45;;;;;;;10.30;8.50;;;;;;;;;;4956772;28;20423;-68
2023/10/01 10:56:14;;;;;;;11.83;8.47;;;;;;;;;;4956844;28;20479;-68
2023/10/01 10:59:01;;;;;;;11.70;9.40;;;;;;;;;;4955002;28;20524;-68
2023/10/01 11:01:43;;;;;;;12.00;9.20;;;;;;;;;;4957021;28;20407;-68
2023/10/01 11:04:09;;;;;;;14.10;9.10;;;;;;;;;;4956635;28;20486;-68
2023/10/01 11:06:43;;;;;;;10.23;8.50;;;;;;;;;;4956810;28;20412;-68
2023/10/01 11:09:23;;;;;;;11.10;8.90;;;;;;;;;;4956848;28;20486;-68
2023/10/01 11:11:50;;;;;;;12.70;8.50;;;;;;;;;;4956730;28;20422;-68
2023/10/01 11:14:19;;;;;;;11.57;9.10;;;;;;;;;;4956679;28;20427;-68
2023/10/01 11:16:46;;;;;;;12.70;8.60;;;;;;;;;;4956969;28;20845;-68
2023/10/01 11:19:12;;;;;;;13.63;8.97;;;;;;;;;;4956747;28;20883;-68
2023/10/01 11:21:44;;;;;;;18.27;14.47;;;;;;;;;;4956531;28;20438;-69
2023/10/01 11:24:12;;;;;;;11.87;10.00;;;;;;;;;;4956447;29;20471;-68
2023/10/01 11:26:59;;;;;;;11.47;9.77;;;;;;;;;;4956458;29;20511;-68
2023/10/01 11:29:29;;;;;;;11.13;9.20;;;;;;;;;;4956135;28;20919;-66
2023/10/01 11:31:55;;;;;;;12.57;8.87;;;;;;;;;;4956408;28;20407;-66
2023/10/01 11:34:26;;;;;;;12.60;8.77;;;;;;;;;;4956279;28;20462;-66
2023/10/01 11:36:57;;;;;;;10.17;8.50;;;;;;;;;;4956300;28;20833;-67
2023/10/01 11:39:38;;;;;;;26.67;23.13;;;;;;;;;;4956089;28;20982;-68
2023/10/01 11:42:19;;;;;;;10.53;8.23;;;;;;;;;;4956323;29;20399;-67
2023/10/01 11:44:52;;;;;;;13.80;8.47;;;;;;;;;;4956075;28;20509;-67
2023/10/01 11:47:31;;;;;;;11.20;8.07;;;;;;;;;;4955990;28;20411;-67
2023/10/01 11:50:07;;;;;;;15.50;9.30;;;;;;;;;;4956390;28;20439;-67
2023/10/01 11:52:33;;;;;;;10.77;7.80;;;;;;;;;;4955906;28;20415;-67
2023/10/01 11:54:59;;;;;;;11.93;8.63;;;;;;;;;;4955839;28;20482;-67
2023/10/01 11:57:31;;;;;;;14.70;8.80;;;;;;;;;;4955860;28;20481;-67
2023/10/01 11:59:58;;;;;;;12.80;8.50;;;;;;;;;;4955857;29;20454;-67
2023/10/01 12:02:31;;;;;;;20.57;9.37;;;;;;;;;;4955568;28;20582;-67
2023/10/01 12:04:58;;;;;;;13.70;8.83;;;;;;;;;;4955676;28;20490;-67
2023/10/01 12:07:27;;;;;;;13.23;8.87;;;;;;;;;;4955656;28;20435;-67
2023/10/01 12:09:56;;;;;;;19.97;8.97;;;;;;;;;;4954658;28;20916;-67
2023/10/01 12:12:36;;;;;;;13.43;9.30;;;;;;;;;;4955486;28;20457;-67
2023/10/01 12:17:47;;;;;;;12.57;8.97;;;;;;;;;;4955445;29;20419;-67
2023/10/01 12:20:22;;;;;;;12.30;8.20;;;;;;;;;;4955474;28;20436;-67
2023/10/01 12:23:04;;;;;;;17.40;8.83;;;;;;;;;;4954259;28;20897;-67
2023/10/01 12:28:15;;;;;;;15.40;8.27;;;;;;;;;;4955625;28;20415;-67
2023/10/01 12:30:41;;;;;;;30.13;20.00;;;;;;;;;;4955285;28;20439;-67
2023/10/01 12:33:08;;;;;;;13.90;9.33;;;;;;;;;;4955633;29;20419;-67
2023/10/01 12:35:36;;;;;;;12.87;8.90;;;;;;;;;;4955232;28;20431;-67
2023/10/01 12:40:49;;;;;;;13.03;8.80;;;;;;;;;;4955464;28;20474;-67
2023/10/01 12:46:00;;;;;;;15.03;8.40;;;;;;;;;;4955270;29;20470;-67
2023/10/01 12:48:27;;;;;;;14.20;9.40;;;;;;;;;;4955398;28;20415;-67
2023/10/01 12:51:09;;;;;;;16.30;8.23;;;;;;;;;;4955182;28;20427;-67
2023/10/01 12:53:50;;;;;;;12.13;8.90;;;;;;;;;;4954815;28;20419;-67
2023/10/01 12:56:43;;;;;;;18.80;9.03;;;;;;;;;;4954829;28;20435;-67
2023/10/01 12:59:09;;;;;;;12.23;8.03;;;;;;;;;;4954747;28;20791;-67
2023/10/01 13:01:35;;;;;;;13.13;8.47;;;;;;;;;;4955123;28;20850;-67
2023/10/01 13:07:03;;;;;;;13.97;8.30;;;;;;;;;;4932681;28;20514;-67
2023/10/01 13:12:14;;;;;;;15.03;9.60;;;;;;;;;;4954982;28;20920;-67
2023/10/01 13:14:41;;;;;;;14.13;8.57;;;;;;;;;;4954878;28;20522;-67
2023/10/01 13:17:19;;;;;;;14.57;9.00;;;;;;;;;;4954697;28;20420;-67
2023/10/01 13:19:48;;;;;;;14.83;9.10;;;;;;;;;;4954545;28;20423;-67
2023/10/01 13:22:16;;;;;;;11.10;8.60;;;;;;;;;;4954217;28;20511;-67
2023/10/01 13:24:42;;;;;;;12.90;8.50;;;;;;;;;;4954505;28;20451;-67
2023/10/01 13:27:16;;;;;;;13.83;8.60;;;;;;;;;;4954613;28;20423;-67
2023/10/01 13:29:49;;;;;;;14.90;9.03;;;;;;;;;;4954648;28;20439;-67
2023/10/01 13:32:26;;;;;;;17.63;9.43;;;;;;;;;;4954583;28;20396;-67
2023/10/01 13:34:58;;;;;;;13.83;8.60;;;;;;;;;;4954482;28;20398;-67
2023/10/01 13:40:11;;;;;;;11.30;8.87;;;;;;;;;;4954347;28;20451;-67
2023/10/01 14:10:20;;;;;;;40.17;25.10;;;;;;;;;;4954362;29;20410;-68
2023/10/01 14:12:56;;;;;;;15.80;11.17;;;;;;;;;;4954148;29;20427;-68
2023/10/01 14:15:23;;;;;;;46.33;32.13;;;;;;;;;;4954156;29;21010;-68
2023/10/01 14:17:55;;;;;;;17.63;9.03;;;;;;;;;;4954020;29;20479;-67
2023/10/01 14:20:37;;;;;;;13.90;8.70;;;;;;;;;;4954097;28;20887;-68
2023/10/01 14:23:07;;;;;;;15.90;9.27;;;;;;;;;;4954339;28;20776;-68
2023/10/01 14:25:40;;;;;;;16.70;9.13;;;;;;;;;;4995281;23;20501;-68
2023/10/01 14:28:20;;;;;;;13.10;8.23;;;;;;;;;;4972048;28;20457;-68
2023/10/01 14:30:59;;;;;;;14.30;8.90;;;;;;;;;;4973391;28;20438;-68
2023/10/01 14:33:28;;;;;;;10.43;7.80;;;;;;;;;;4974415;28;20407;-68
2023/10/01 14:36:02;;;;;;;14.80;8.90;;;;;;;;;;4976596;28;21049;-68
2023/10/01 14:38:37;;;;;;;11.90;8.80;;;;;;;;;;4976598;28;20979;-68
2023/10/01 14:41:04;;;;;;;9.77;7.90;;;;;;;;;;4976856;28;20441;-68
2023/10/01 14:43:30;;;;;;;17.00;8.90;;;;;;;;;;4976604;28;20423;-68
2023/10/01 14:45:56;;;;;;;13.07;8.60;;;;;;;;;;4976248;28;20442;-68
2023/10/01 14:48:22;;;;;;;14.77;9.10;;;;;;;;;;4976394;28;20415;-68
2023/10/01 14:50:49;;;;;;;12.17;8.73;;;;;;;;;;4976381;28;20441;-68
2023/10/01 14:53:18;;;;;;;13.10;8.50;;;;;;;;;;4976387;28;20554;-68
2023/10/01 14:55:46;;;;;;;15.17;8.43;;;;;;;;;;4976364;28;20784;-68
2023/10/01 14:58:15;;;;;;;11.53;8.20;;;;;;;;;;4976089;28;20779;-68
2023/10/01 15:00:49;;;;;;;11.20;8.10;;;;;;;;;;4976272;28;20403;-68
2023/10/01 15:03:16;;;;;;;11.07;7.90;;;;;;;;;;4976372;28;20410;-68
2023/10/01 15:05:42;;;;;;;11.30;8.03;;;;;;;;;;4976058;28;20414;-68
2023/10/01 15:08:08;;;;;;;16.07;9.03;;;;;;;;;;4976098;28;20406;-68
2023/10/01 15:10:37;;;;;;;13.03;8.50;;;;;;;;;;4976018;28;20909;-68
2023/10/01 15:13:03;;;;;;;14.70;8.43;;;;;;;;;;4976027;28;20399;-68
2023/10/01 15:15:41;;;;;;;17.73;8.87;;;;;;;;;;4976004;28;20430;-68
2023/10/01 15:18:17;;;;;;;10.77;7.97;;;;;;;;;;4975981;28;20866;-68
2023/10/01 15:20:54;;;;;;;11.20;7.87;;;;;;;;;;4975960;28;20484;-68
2023/10/01 15:23:22;;;;;;;11.87;8.23;;;;;;;;;;4974486;28;20516;-68
2023/10/01 15:25:48;;;;;;;12.17;9.00;;;;;;;;;;4975714;28;20446;-68
2023/10/01 15:28:17;;;;;;;13.33;8.63;;;;;;;;;;4975663;28;20883;-68
2023/10/01 15:30:47;;;;;;;12.53;8.67;;;;;;;;;;4975511;28;20789;-68
2023/10/01 15:33:15;;;;;;;11.80;8.00;;;;;;;;;;4974832;28;20473;-68
2023/10/01 15:35:51;;;;;;;12.50;8.67;;;;;;;;;;4975765;28;20407;-68
2023/10/01 15:38:35;;;;;;;15.60;9.50;;;;;;;;;;4975318;28;20409;-68
2023/10/01 15:41:09;;;;;;;15.40;9.63;;;;;;;;;;4975494;28;20796;-68
2023/10/01 15:43:42;;;;;;;10.33;7.80;;;;;;;;;;4975239;28;20409;-68
2023/10/01 15:46:11;;;;;;;10.00;7.57;;;;;;;;;;4975371;28;20414;-68
2023/10/01 15:48:50;;;;;;;14.93;8.90;;;;;;;;;;4975452;28;20423;-68
2023/10/01 15:51:26;;;;;;;10.87;8.07;;;;;;;;;;4975249;28;20471;-68
2023/10/01 15:53:53;;;;;;;12.53;8.70;;;;;;;;;;4975109;28;20414;-68
2023/10/01 15:56:30;;;;;;;13.17;8.93;;;;;;;;;;4975154;28;20457;-68
2023/10/01 15:58:57;;;;;;;15.70;9.10;;;;;;;;;;4975245;28;20485;-68
2023/10/01 16:01:23;;;;;;;20.33;10.00;;;;;;;;;;4974900;28;20429;-68
2023/10/01 16:03:53;;;;;;;41.43;26.00;;;;;;;;;;4973863;28;20470;-68